sensor_id;sensor_type;location;lat;lon;timestamp;P1;durP1;ratioP1;P2;durP2;ratioP2
47367;SDS011;34646;47.964;7.982;2023-05-10T00:02:09;1.85;;;0.90;;
47367;SDS011;34646;47.964;7.982;2023-05-10T00:08:10;1.70;;;0.85;;
47367;SDS011;34646;47.964;7.982;2023-05-10T00:14:11;2.13;;;1.00;;
47367;SDS011;34646;47.964;7.982;2023-05-10T00:20:12;3.67;;;1.02;;
47367;SDS011;34646;47.964;7.982;2023-05-10T00:26:13;1.23;;;0.90;;
47367;SDS011;34646;47.964;7.982;2023-05-10T00:32:18;1.90;;;0.80;;
47367;SDS011;34646;47.964;7.982;2023-05-10T00:38:20;2.30;;;0.80;;
47367;SDS011;34646;47.964;7.982;2023-05-10T00:44:21;1.45;;;0.88;;
47367;SDS011;34646;47.964;7.982;2023-05-10T00:50:23;2.88;;;0.95;;
47367;SDS011;34646;47.964;7.982;2023-05-10T00:56:25;1.08;;;0.70;;
47367;SDS011;34646;47.964;7.982;2023-05-10T01:02:26;1.75;;;0.93;;
47367;SDS011;34646;47.964;7.982;2023-05-10T01:08:27;3.60;;;1.20;;
47367;SDS011;34646;47.964;7.982;2023-05-10T01:14:29;1.30;;;0.80;;
47367;SDS011;34646;47.964;7.982;2023-05-10T01:20:32;2.80;;;0.98;;
47367;SDS011;34646;47.964;7.982;2023-05-10T01:39:25;2.15;;;1.08;;
47367;SDS011;34646;47.964;7.982;2023-05-10T01:46:20;2.00;;;0.85;;
47367;SDS011;34646;47.964;7.982;2023-05-10T01:52:09;1.80;;;0.90;;
47367;SDS011;34646;47.964;7.982;2023-05-10T01:58:14;2.00;;;0.98;;
47367;SDS011;34646;47.964;7.982;2023-05-10T02:04:18;2.60;;;1.13;;
47367;SDS011;34646;47.964;7.982;2023-05-10T02:10:20;1.73;;;1.00;;
47367;SDS011;34646;47.964;7.982;2023-05-10T02:16:23;2.40;;;0.80;;
47367;SDS011;34646;47.964;7.982;2023-05-10T02:22:26;2.20;;;0.80;;
47367;SDS011;34646;47.964;7.982;2023-05-10T02:28:28;1.92;;;0.80;;
47367;SDS011;34646;47.964;7.982;2023-05-10T02:34:30;2.00;;;0.90;;
47367;SDS011;34646;47.964;7.982;2023-05-10T02:40:32;1.30;;;0.80;;
47367;SDS011;34646;47.964;7.982;2023-05-10T02:46:33;2.00;;;1.08;;
47367;SDS011;34646;47.964;7.982;2023-05-10T02:52:51;1.33;;;0.80;;
47367;SDS011;34646;47.964;7.982;2023-05-10T02:58:54;1.20;;;0.75;;
47367;SDS011;34646;47.964;7.982;2023-05-10T03:04:55;1.45;;;0.80;;
47367;SDS011;34646;47.964;7.982;2023-05-10T03:11:04;1.88;;;0.82;;
47367;SDS011;34646;47.964;7.982;2023-05-10T03:29:34;2.35;;;1.20;;
47367;SDS011;34646;47.964;7.982;2023-05-10T03:35:38;1.50;;;0.88;;
47367;SDS011;34646;47.964;7.982;2023-05-10T03:41:40;1.13;;;0.88;;
47367;SDS011;34646;47.964;7.982;2023-05-10T03:47:42;1.48;;;0.80;;
47367;SDS011;34646;47.964;7.982;2023-05-10T03:53:44;1.45;;;0.77;;
47367;SDS011;34646;47.964;7.982;2023-05-10T03:59:45;1.30;;;0.93;;
47367;SDS011;34646;47.964;7.982;2023-05-10T04:05:46;1.27;;;0.80;;
47367;SDS011;34646;47.964;7.982;2023-05-10T04:11:46;1.30;;;0.80;;
47367;SDS011;34646;47.964;7.982;2023-05-10T04:17:48;1.50;;;0.87;;
47367;SDS011;34646;47.964;7.982;2023-05-10T04:23:49;1.27;;;0.60;;
47367;SDS011;34646;47.964;7.982;2023-05-10T04:29:50;1.27;;;0.80;;
47367;SDS011;34646;47.964;7.982;2023-05-10T04:35:51;1.33;;;0.80;;
47367;SDS011;34646;47.964;7.982;2023-05-10T04:41:52;1.63;;;0.60;;
47367;SDS011;34646;47.964;7.982;2023-05-10T04:47:53;1.10;;;0.80;;
47367;SDS011;34646;47.964;7.982;2023-05-10T04:53:54;3.67;;;0.82;;
47367;SDS011;34646;47.964;7.982;2023-05-10T04:59:55;3.27;;;0.80;;
47367;SDS011;34646;47.964;7.982;2023-05-10T05:05:56;2.60;;;0.90;;
47367;SDS011;34646;47.964;7.982;2023-05-10T05:11:57;5.10;;;1.17;;
47367;SDS011;34646;47.964;7.982;2023-05-10T05:17:58;2.05;;;0.80;;
47367;SDS011;34646;47.964;7.982;2023-05-10T05:23:59;2.83;;;1.03;;
47367;SDS011;34646;47.964;7.982;2023-05-10T05:30:00;2.17;;;0.80;;
47367;SDS011;34646;47.964;7.982;2023-05-10T05:36:02;2.75;;;0.85;;
47367;SDS011;34646;47.964;7.982;2023-05-10T05:42:04;2.30;;;0.85;;
47367;SDS011;34646;47.964;7.982;2023-05-10T05:48:04;3.10;;;0.70;;
47367;SDS011;34646;47.964;7.982;2023-05-10T05:54:05;2.00;;;0.73;;
47367;SDS011;34646;47.964;7.982;2023-05-10T06:00:06;2.70;;;0.83;;
47367;SDS011;34646;47.964;7.982;2023-05-10T06:06:12;3.70;;;0.73;;
47367;SDS011;34646;47.964;7.982;2023-05-10T06:12:13;3.40;;;0.80;;
47367;SDS011;34646;47.964;7.982;2023-05-10T06:18:14;1.83;;;0.60;;
47367;SDS011;34646;47.964;7.982;2023-05-10T06:24:15;1.43;;;0.70;;
47367;SDS011;34646;47.964;7.982;2023-05-10T06:30:16;2.37;;;0.67;;
47367;SDS011;34646;47.964;7.982;2023-05-10T06:36:17;1.83;;;0.90;;
47367;SDS011;34646;47.964;7.982;2023-05-10T06:42:18;1.77;;;0.80;;
47367;SDS011;34646;47.964;7.982;2023-05-10T06:48:20;1.15;;;0.70;;
47367;SDS011;34646;47.964;7.982;2023-05-10T06:54:21;4.53;;;0.70;;
47367;SDS011;34646;47.964;7.982;2023-05-10T07:00:23;1.05;;;0.73;;
47367;SDS011;34646;47.964;7.982;2023-05-10T07:06:23;1.10;;;0.60;;
47367;SDS011;34646;47.964;7.982;2023-05-10T07:12:24;1.20;;;0.90;;
47367;SDS011;34646;47.964;7.982;2023-05-10T07:18:26;1.20;;;0.68;;
47367;SDS011;34646;47.964;7.982;2023-05-10T07:24:26;1.03;;;0.60;;
47367;SDS011;34646;47.964;7.982;2023-05-10T07:30:27;1.00;;;0.60;;
47367;SDS011;34646;47.964;7.982;2023-05-10T07:36:28;3.87;;;0.80;;
47367;SDS011;34646;47.964;7.982;2023-05-10T07:42:29;1.30;;;0.80;;
47367;SDS011;34646;47.964;7.982;2023-05-10T07:48:30;2.07;;;0.60;;
47367;SDS011;34646;47.964;7.982;2023-05-10T07:54:31;2.83;;;0.63;;
47367;SDS011;34646;47.964;7.982;2023-05-10T08:00:33;0.95;;;0.63;;
47367;SDS011;34646;47.964;7.982;2023-05-10T08:06:34;0.87;;;0.47;;
47367;SDS011;34646;47.964;7.982;2023-05-10T08:12:35;2.57;;;0.60;;
47367;SDS011;34646;47.964;7.982;2023-05-10T08:18:36;0.87;;;0.53;;
47367;SDS011;34646;47.964;7.982;2023-05-10T08:24:37;1.90;;;0.77;;
47367;SDS011;34646;47.964;7.982;2023-05-10T08:30:39;1.50;;;0.80;;
47367;SDS011;34646;47.964;7.982;2023-05-10T08:36:40;1.10;;;0.70;;
47367;SDS011;34646;47.964;7.982;2023-05-10T08:42:43;2.67;;;0.80;;
47367;SDS011;34646;47.964;7.982;2023-05-10T08:48:50;1.33;;;0.60;;
47367;SDS011;34646;47.964;7.982;2023-05-10T08:54:51;1.50;;;0.68;;
47367;SDS011;34646;47.964;7.982;2023-05-10T09:00:52;1.45;;;0.70;;
47367;SDS011;34646;47.964;7.982;2023-05-10T09:06:53;0.50;;;0.40;;
47367;SDS011;34646;47.964;7.982;2023-05-10T09:12:56;2.25;;;0.80;;
47367;SDS011;34646;47.964;7.982;2023-05-10T09:18:57;1.58;;;0.70;;
47367;SDS011;34646;47.964;7.982;2023-05-10T09:25:08;0.77;;;0.50;;
47367;SDS011;34646;47.964;7.982;2023-05-10T09:31:13;1.67;;;0.70;;
47367;SDS011;34646;47.964;7.982;2023-05-10T09:37:14;0.85;;;0.55;;
47367;SDS011;34646;47.964;7.982;2023-05-10T09:43:15;1.77;;;0.50;;
47367;SDS011;34646;47.964;7.982;2023-05-10T09:49:16;0.97;;;0.63;;
47367;SDS011;34646;47.964;7.982;2023-05-10T09:55:18;1.30;;;0.50;;
47367;SDS011;34646;47.964;7.982;2023-05-10T10:01:22;1.55;;;0.60;;
47367;SDS011;34646;47.964;7.982;2023-05-10T10:07:26;0.80;;;0.55;;
47367;SDS011;34646;47.964;7.982;2023-05-10T10:13:27;1.00;;;0.50;;
47367;SDS011;34646;47.964;7.982;2023-05-10T10:19:28;1.92;;;0.65;;
47367;SDS011;34646;47.964;7.982;2023-05-10T10:25:32;1.40;;;0.60;;
47367;SDS011;34646;47.964;7.982;2023-05-10T10:31:47;0.73;;;0.33;;
47367;SDS011;34646;47.964;7.982;2023-05-10T10:37:58;0.85;;;0.50;;
47367;SDS011;34646;47.964;7.982;2023-05-10T10:50:29;1.13;;;0.57;;
47367;SDS011;34646;47.964;7.982;2023-05-10T10:56:30;3.80;;;0.60;;
47367;SDS011;34646;47.964;7.982;2023-05-10T11:02:34;4.20;;;0.80;;
47367;SDS011;34646;47.964;7.982;2023-05-10T11:08:56;2.78;;;0.50;;
47367;SDS011;34646;47.964;7.982;2023-05-10T11:14:57;1.35;;;0.68;;
47367;SDS011;34646;47.964;7.982;2023-05-10T11:33:01;1.02;;;0.63;;
47367;SDS011;34646;47.964;7.982;2023-05-10T11:39:02;0.82;;;0.60;;
47367;SDS011;34646;47.964;7.982;2023-05-10T11:45:03;1.45;;;0.50;;
47367;SDS011;34646;47.964;7.982;2023-05-10T11:57:06;0.88;;;0.50;;
47367;SDS011;34646;47.964;7.982;2023-05-10T12:03:08;2.92;;;0.70;;
47367;SDS011;34646;47.964;7.982;2023-05-10T12:09:10;2.63;;;1.15;;
47367;SDS011;34646;47.964;7.982;2023-05-10T12:15:21;0.93;;;0.60;;
47367;SDS011;34646;47.964;7.982;2023-05-10T12:21:23;3.80;;;0.55;;
47367;SDS011;34646;47.964;7.982;2023-05-10T12:27:24;5.63;;;0.70;;
47367;SDS011;34646;47.964;7.982;2023-05-10T12:33:25;5.47;;;0.60;;
47367;SDS011;34646;47.964;7.982;2023-05-10T12:39:26;3.75;;;0.80;;
47367;SDS011;34646;47.964;7.982;2023-05-10T12:45:41;2.67;;;0.80;;
47367;SDS011;34646;47.964;7.982;2023-05-10T12:51:42;3.20;;;0.80;;
47367;SDS011;34646;47.964;7.982;2023-05-10T12:57:43;3.17;;;0.50;;
47367;SDS011;34646;47.964;7.982;2023-05-10T13:03:44;2.83;;;0.60;;
47367;SDS011;34646;47.964;7.982;2023-05-10T13:09:45;2.03;;;0.70;;
47367;SDS011;34646;47.964;7.982;2023-05-10T13:15:46;1.87;;;0.70;;
47367;SDS011;34646;47.964;7.982;2023-05-10T13:21:47;6.40;;;0.77;;
47367;SDS011;34646;47.964;7.982;2023-05-10T13:27:48;2.10;;;0.80;;
47367;SDS011;34646;47.964;7.982;2023-05-10T13:33:49;1.80;;;0.40;;
47367;SDS011;34646;47.964;7.982;2023-05-10T13:39:50;4.80;;;1.03;;
47367;SDS011;34646;47.964;7.982;2023-05-10T13:45:51;1.63;;;0.80;;
47367;SDS011;34646;47.964;7.982;2023-05-10T13:51:52;2.95;;;0.90;;
47367;SDS011;34646;47.964;7.982;2023-05-10T13:57:53;1.87;;;0.70;;
47367;SDS011;34646;47.964;7.982;2023-05-10T14:03:54;4.27;;;0.80;;
47367;SDS011;34646;47.964;7.982;2023-05-10T14:09:55;1.10;;;0.50;;
47367;SDS011;34646;47.964;7.982;2023-05-10T14:15:56;1.70;;;0.65;;
47367;SDS011;34646;47.964;7.982;2023-05-10T14:21:58;4.60;;;0.70;;
47367;SDS011;34646;47.964;7.982;2023-05-10T14:27:59;5.87;;;0.77;;
47367;SDS011;34646;47.964;7.982;2023-05-10T14:34:00;0.90;;;0.50;;
47367;SDS011;34646;47.964;7.982;2023-05-10T14:40:01;3.10;;;0.73;;
47367;SDS011;34646;47.964;7.982;2023-05-10T14:46:04;1.45;;;0.75;;
47367;SDS011;34646;47.964;7.982;2023-05-10T14:52:05;1.15;;;0.50;;
47367;SDS011;34646;47.964;7.982;2023-05-10T14:58:06;2.85;;;0.70;;
47367;SDS011;34646;47.964;7.982;2023-05-10T15:04:07;1.92;;;0.70;;
47367;SDS011;34646;47.964;7.982;2023-05-10T15:10:09;2.60;;;0.55;;
47367;SDS011;34646;47.964;7.982;2023-05-10T15:16:11;1.63;;;0.30;;
47367;SDS011;34646;47.964;7.982;2023-05-10T15:22:12;2.73;;;0.60;;
47367;SDS011;34646;47.964;7.982;2023-05-10T15:28:13;1.70;;;0.57;;
47367;SDS011;34646;47.964;7.982;2023-05-10T15:34:14;0.90;;;0.37;;
47367;SDS011;34646;47.964;7.982;2023-05-10T15:40:15;3.72;;;0.45;;
47367;SDS011;34646;47.964;7.982;2023-05-10T15:46:16;1.58;;;0.30;;
47367;SDS011;34646;47.964;7.982;2023-05-10T15:52:17;4.40;;;0.50;;
47367;SDS011;34646;47.964;7.982;2023-05-10T15:58:18;1.08;;;0.28;;
47367;SDS011;34646;47.964;7.982;2023-05-10T16:04:19;2.00;;;0.40;;
47367;SDS011;34646;47.964;7.982;2023-05-10T16:10:20;1.10;;;0.40;;
47367;SDS011;34646;47.964;7.982;2023-05-10T16:16:21;2.88;;;0.50;;
47367;SDS011;34646;47.964;7.982;2023-05-10T16:22:22;3.60;;;0.57;;
47367;SDS011;34646;47.964;7.982;2023-05-10T16:28:26;3.53;;;0.38;;
47367;SDS011;34646;47.964;7.982;2023-05-10T16:34:27;1.67;;;0.70;;
47367;SDS011;34646;47.964;7.982;2023-05-10T16:40:28;1.27;;;0.40;;
47367;SDS011;34646;47.964;7.982;2023-05-10T16:46:29;3.13;;;0.53;;
47367;SDS011;34646;47.964;7.982;2023-05-10T16:52:30;0.90;;;0.47;;
47367;SDS011;34646;47.964;7.982;2023-05-10T16:58:32;5.22;;;0.60;;
47367;SDS011;34646;47.964;7.982;2023-05-10T17:04:33;2.35;;;0.40;;
47367;SDS011;34646;47.964;7.982;2023-05-10T17:10:35;0.85;;;0.35;;
47367;SDS011;34646;47.964;7.982;2023-05-10T17:16:36;1.17;;;0.40;;
47367;SDS011;34646;47.964;7.982;2023-05-10T17:22:37;0.65;;;0.30;;
47367;SDS011;34646;47.964;7.982;2023-05-10T17:28:37;7.57;;;0.67;;
47367;SDS011;34646;47.964;7.982;2023-05-10T17:34:38;3.07;;;0.60;;
47367;SDS011;34646;47.964;7.982;2023-05-10T17:40:39;3.40;;;0.50;;
47367;SDS011;34646;47.964;7.982;2023-05-10T17:46:41;1.92;;;0.50;;
47367;SDS011;34646;47.964;7.982;2023-05-10T17:52:42;1.80;;;0.60;;
47367;SDS011;34646;47.964;7.982;2023-05-10T17:58:43;4.97;;;0.85;;
47367;SDS011;34646;47.964;7.982;2023-05-10T18:04:44;2.38;;;0.40;;
47367;SDS011;34646;47.964;7.982;2023-05-10T18:10:47;2.42;;;1.00;;
47367;SDS011;34646;47.964;7.982;2023-05-10T18:16:49;2.42;;;0.75;;
47367;SDS011;34646;47.964;7.982;2023-05-10T18:22:49;8.67;;;0.90;;
47367;SDS011;34646;47.964;7.982;2023-05-10T18:28:53;24.70;;;2.70;;
47367;SDS011;34646;47.964;7.982;2023-05-10T18:34:59;37.58;;;3.17;;
47367;SDS011;34646;47.964;7.982;2023-05-10T18:41:00;37.55;;;2.45;;
47367;SDS011;34646;47.964;7.982;2023-05-10T18:47:02;23.45;;;2.03;;
47367;SDS011;34646;47.964;7.982;2023-05-10T18:53:03;19.57;;;2.50;;
47367;SDS011;34646;47.964;7.982;2023-05-10T18:59:03;19.73;;;1.37;;
47367;SDS011;34646;47.964;7.982;2023-05-10T19:05:04;18.53;;;2.03;;
47367;SDS011;34646;47.964;7.982;2023-05-10T19:17:06;9.40;;;1.30;;
47367;SDS011;34646;47.964;7.982;2023-05-10T19:23:07;10.35;;;1.42;;
47367;SDS011;34646;47.964;7.982;2023-05-10T19:29:08;10.83;;;1.23;;
47367;SDS011;34646;47.964;7.982;2023-05-10T19:35:09;15.35;;;1.30;;
47367;SDS011;34646;47.964;7.982;2023-05-10T19:41:13;8.13;;;1.20;;
47367;SDS011;34646;47.964;7.982;2023-05-10T19:47:14;11.25;;;1.10;;
47367;SDS011;34646;47.964;7.982;2023-05-10T19:53:15;11.30;;;0.90;;
47367;SDS011;34646;47.964;7.982;2023-05-10T19:59:15;8.70;;;0.90;;
47367;SDS011;34646;47.964;7.982;2023-05-10T20:05:16;13.17;;;1.03;;
47367;SDS011;34646;47.964;7.982;2023-05-10T20:11:17;7.37;;;1.03;;
47367;SDS011;34646;47.964;7.982;2023-05-10T20:17:17;5.73;;;0.70;;
47367;SDS011;34646;47.964;7.982;2023-05-10T20:23:18;6.57;;;0.83;;
47367;SDS011;34646;47.964;7.982;2023-05-10T20:29:19;4.43;;;0.90;;
47367;SDS011;34646;47.964;7.982;2023-05-10T20:35:19;6.47;;;0.50;;
47367;SDS011;34646;47.964;7.982;2023-05-10T20:41:21;9.32;;;1.08;;
47367;SDS011;34646;47.964;7.982;2023-05-10T20:47:21;6.07;;;0.73;;
47367;SDS011;34646;47.964;7.982;2023-05-10T20:53:22;5.53;;;0.60;;
47367;SDS011;34646;47.964;7.982;2023-05-10T20:59:23;6.53;;;0.80;;
47367;SDS011;34646;47.964;7.982;2023-05-10T21:05:24;2.40;;;0.73;;
47367;SDS011;34646;47.964;7.982;2023-05-10T21:11:25;3.77;;;0.60;;
47367;SDS011;34646;47.964;7.982;2023-05-10T21:17:26;2.15;;;0.45;;
47367;SDS011;34646;47.964;7.982;2023-05-10T21:23:27;5.63;;;0.70;;
47367;SDS011;34646;47.964;7.982;2023-05-10T21:29:27;1.90;;;0.40;;
47367;SDS011;34646;47.964;7.982;2023-05-10T21:35:28;6.13;;;0.60;;
47367;SDS011;34646;47.964;7.982;2023-05-10T21:41:29;7.65;;;0.82;;
47367;SDS011;34646;47.964;7.982;2023-05-10T21:47:30;5.50;;;0.67;;
47367;SDS011;34646;47.964;7.982;2023-05-10T21:53:31;1.17;;;0.43;;
47367;SDS011;34646;47.964;7.982;2023-05-10T21:59:31;5.20;;;0.57;;
47367;SDS011;34646;47.964;7.982;2023-05-10T22:05:32;2.47;;;0.60;;
47367;SDS011;34646;47.964;7.982;2023-05-10T22:11:33;3.47;;;0.47;;
47367;SDS011;34646;47.964;7.982;2023-05-10T22:17:34;2.60;;;0.50;;
47367;SDS011;34646;47.964;7.982;2023-05-10T22:23:36;2.35;;;0.50;;
47367;SDS011;34646;47.964;7.982;2023-05-10T22:29:37;2.03;;;0.47;;
47367;SDS011;34646;47.964;7.982;2023-05-10T22:35:37;1.07;;;0.40;;
47367;SDS011;34646;47.964;7.982;2023-05-10T22:41:38;1.60;;;0.50;;
47367;SDS011;34646;47.964;7.982;2023-05-10T22:47:39;1.10;;;0.50;;
47367;SDS011;34646;47.964;7.982;2023-05-10T22:53:40;2.17;;;0.43;;
47367;SDS011;34646;47.964;7.982;2023-05-10T22:59:40;3.60;;;0.60;;
47367;SDS011;34646;47.964;7.982;2023-05-10T23:05:41;1.48;;;0.52;;
47367;SDS011;34646;47.964;7.982;2023-05-10T23:11:42;3.10;;;0.30;;
47367;SDS011;34646;47.964;7.982;2023-05-10T23:17:43;1.37;;;0.50;;
47367;SDS011;34646;47.964;7.982;2023-05-10T23:23:44;2.07;;;0.47;;
47367;SDS011;34646;47.964;7.982;2023-05-10T23:29:44;2.23;;;0.50;;
47367;SDS011;34646;47.964;7.982;2023-05-10T23:35:45;1.67;;;0.47;;
47367;SDS011;34646;47.964;7.982;2023-05-10T23:41:46;4.57;;;0.67;;
47367;SDS011;34646;47.964;7.982;2023-05-10T23:47:46;3.73;;;0.57;;
47367;SDS011;34646;47.964;7.982;2023-05-10T23:53:47;1.83;;;0.40;;
47367;SDS011;34646;47.964;7.982;2023-05-10T23:59:48;1.67;;;0.40;;
